sensor_id;sensor_type;location;lat;lon;timestamp;pressure;altitude;pressure_sealevel;temperature;humidity
68994;BME280;56054;50.968;5.816;2022-11-20T00:01:24;100418.97;;;2.92;93.13
68994;BME280;56054;50.968;5.816;2022-11-20T00:04:31;100437.09;;;2.94;92.67
68994;BME280;56054;50.968;5.816;2022-11-20T00:07:41;100419.63;;;2.90;92.46
68994;BME280;56054;50.968;5.816;2022-11-20T00:10:47;100422.84;;;2.97;92.34
68994;BME280;56054;50.968;5.816;2022-11-20T00:13:56;100428.31;;;3.11;93.29
68994;BME280;56054;50.968;5.816;2022-11-20T00:17:03;100422.31;;;3.20;93.27
68994;BME280;56054;50.968;5.816;2022-11-20T00:20:11;100416.69;;;3.25;92.71
68994;BME280;56054;50.968;5.816;2022-11-20T00:23:17;100414.78;;;3.42;93.12
68994;BME280;56054;50.968;5.816;2022-11-20T00:26:26;100403.84;;;3.25;92.26
68994;BME280;56054;50.968;5.816;2022-11-20T00:29:33;100412.53;;;3.16;92.70
68994;BME280;56054;50.968;5.816;2022-11-20T00:32:40;100406.00;;;3.20;92.10
68994;BME280;56054;50.968;5.816;2022-11-20T00:35:47;100412.53;;;3.16;92.08
68994;BME280;56054;50.968;5.816;2022-11-20T00:38:56;100400.75;;;3.29;91.91
68994;BME280;56054;50.968;5.816;2022-11-20T00:42:03;100399.59;;;3.25;92.26
68994;BME280;56054;50.968;5.816;2022-11-20T00:45:10;100403.97;;;3.26;93.02
68994;BME280;56054;50.968;5.816;2022-11-20T00:48:17;100402.47;;;3.49;92.85
68994;BME280;56054;50.968;5.816;2022-11-20T00:51:26;100400.72;;;3.18;92.83
68994;BME280;56054;50.968;5.816;2022-11-20T00:54:33;100401.53;;;2.88;91.75
68994;BME280;56054;50.968;5.816;2022-11-20T00:57:40;100399.44;;;2.84;92.13
68994;BME280;56054;50.968;5.816;2022-11-20T01:00:47;100398.22;;;2.99;91.99
68994;BME280;56054;50.968;5.816;2022-11-20T01:03:56;100400.06;;;3.11;92.50
68994;BME280;56054;50.968;5.816;2022-11-20T01:07:03;100393.25;;;3.01;92.62
68994;BME280;56054;50.968;5.816;2022-11-20T01:10:10;100384.44;;;2.78;92.97
68994;BME280;56054;50.968;5.816;2022-11-20T01:13:17;100384.09;;;2.94;92.78
68994;BME280;56054;50.968;5.816;2022-11-20T01:16:44;100384.41;;;3.08;92.75
68994;BME280;56054;50.968;5.816;2022-11-20T01:19:54;100388.88;;;3.00;93.46
68994;BME280;56054;50.968;5.816;2022-11-20T01:23:02;100385.97;;;3.16;93.73
68994;BME280;56054;50.968;5.816;2022-11-20T01:26:13;100381.38;;;3.22;93.42
68994;BME280;56054;50.968;5.816;2022-11-20T01:29:24;100375.13;;;2.99;93.68
68994;BME280;56054;50.968;5.816;2022-11-20T01:32:31;100375.41;;;3.03;94.01
68994;BME280;56054;50.968;5.816;2022-11-20T01:35:38;100375.53;;;3.04;93.62
68994;BME280;56054;50.968;5.816;2022-11-20T01:38:45;100389.13;;;3.03;93.51
68994;BME280;56054;50.968;5.816;2022-11-20T01:41:53;100394.97;;;3.21;94.54
68994;BME280;56054;50.968;5.816;2022-11-20T01:45:00;100388.06;;;3.30;94.54
68994;BME280;56054;50.968;5.816;2022-11-20T01:48:07;100371.81;;;3.00;94.84
68994;BME280;56054;50.968;5.816;2022-11-20T01:51:25;100378.25;;;3.16;95.07
68994;BME280;56054;50.968;5.816;2022-11-20T01:54:36;100364.66;;;3.17;94.88
68994;BME280;56054;50.968;5.816;2022-11-20T01:57:45;100357.78;;;2.97;95.75
68994;BME280;56054;50.968;5.816;2022-11-20T02:00:54;100358.44;;;2.94;96.23
68994;BME280;56054;50.968;5.816;2022-11-20T02:04:02;100358.16;;;2.91;96.36
68994;BME280;56054;50.968;5.816;2022-11-20T02:07:10;100369.03;;;3.28;95.88
68994;BME280;56054;50.968;5.816;2022-11-20T02:10:17;100362.00;;;3.46;96.42
68994;BME280;56054;50.968;5.816;2022-11-20T02:13:24;100372.16;;;3.34;96.92
68994;BME280;56054;50.968;5.816;2022-11-20T02:16:36;100384.06;;;3.34;97.13
68994;BME280;56054;50.968;5.816;2022-11-20T02:19:47;100398.47;;;3.32;99.02
68994;BME280;56054;50.968;5.816;2022-11-20T02:22:59;100384.22;;;3.46;97.54
68994;BME280;56054;50.968;5.816;2022-11-20T02:26:12;100381.00;;;3.38;96.82
68994;BME280;56054;50.968;5.816;2022-11-20T02:29:27;100379.09;;;3.46;96.13
68994;BME280;56054;50.968;5.816;2022-11-20T02:32:38;100380.13;;;3.58;96.47
68994;BME280;56054;50.968;5.816;2022-11-20T02:35:46;100377.69;;;3.59;96.37
68994;BME280;56054;50.968;5.816;2022-11-20T02:38:53;100381.31;;;3.51;96.79
68994;BME280;56054;50.968;5.816;2022-11-20T02:42:00;100376.13;;;3.31;96.93
68994;BME280;56054;50.968;5.816;2022-11-20T02:45:07;100371.38;;;3.35;96.55
68994;BME280;56054;50.968;5.816;2022-11-20T02:48:15;100381.06;;;3.09;96.53
68994;BME280;56054;50.968;5.816;2022-11-20T02:51:22;100374.63;;;3.04;95.80
68994;BME280;56054;50.968;5.816;2022-11-20T02:54:29;100370.88;;;3.29;95.56
68994;BME280;56054;50.968;5.816;2022-11-20T02:57:36;100377.00;;;3.31;95.34
68994;BME280;56054;50.968;5.816;2022-11-20T03:00:43;100374.19;;;3.38;95.61
68994;BME280;56054;50.968;5.816;2022-11-20T03:03:50;100370.34;;;3.43;95.75
68994;BME280;56054;50.968;5.816;2022-11-20T03:06:57;100364.56;;;3.46;95.27
68994;BME280;56054;50.968;5.816;2022-11-20T03:10:05;100372.91;;;3.33;96.67
68994;BME280;56054;50.968;5.816;2022-11-20T03:13:14;100380.19;;;3.18;96.41
68994;BME280;56054;50.968;5.816;2022-11-20T03:16:21;100372.91;;;3.33;96.32
68994;BME280;56054;50.968;5.816;2022-11-20T03:19:28;100379.06;;;3.25;96.95
68994;BME280;56054;50.968;5.816;2022-11-20T03:22:35;100389.09;;;3.22;96.26
68994;BME280;56054;50.968;5.816;2022-11-20T03:25:42;100394.72;;;3.28;96.88
68994;BME280;56054;50.968;5.816;2022-11-20T03:28:54;100375.72;;;3.36;95.51
68994;BME280;56054;50.968;5.816;2022-11-20T03:32:01;100365.19;;;3.23;95.21
68994;BME280;56054;50.968;5.816;2022-11-20T03:35:09;100370.28;;;3.03;95.79
68994;BME280;56054;50.968;5.816;2022-11-20T03:38:15;100365.50;;;2.97;95.34
68994;BME280;56054;50.968;5.816;2022-11-20T03:41:27;100357.34;;;3.21;94.58
68994;BME280;56054;50.968;5.816;2022-11-20T03:44:34;100361.09;;;3.35;94.82
68994;BME280;56054;50.968;5.816;2022-11-20T03:47:47;100354.28;;;3.26;94.55
68994;BME280;56054;50.968;5.816;2022-11-20T03:54:15;100351.38;;;3.41;94.75
68994;BME280;56054;50.968;5.816;2022-11-20T03:57:22;100354.59;;;3.49;94.50
68994;BME280;56054;50.968;5.816;2022-11-20T04:00:29;100359.78;;;3.10;95.19
68994;BME280;56054;50.968;5.816;2022-11-20T04:03:38;100357.09;;;3.29;95.11
68994;BME280;56054;50.968;5.816;2022-11-20T04:06:45;100350.75;;;3.05;94.96
68994;BME280;56054;50.968;5.816;2022-11-20T04:09:52;100356.88;;;2.86;96.61
68994;BME280;56054;50.968;5.816;2022-11-20T04:13:00;100346.50;;;2.95;96.16
68994;BME280;56054;50.968;5.816;2022-11-20T04:16:08;100345.56;;;2.84;96.21
68994;BME280;56054;50.968;5.816;2022-11-20T04:19:16;100345.59;;;2.94;96.29
68994;BME280;56054;50.968;5.816;2022-11-20T04:22:22;100342.09;;;2.84;95.68
68994;BME280;56054;50.968;5.816;2022-11-20T04:25:29;100343.69;;;3.02;96.02
68994;BME280;56054;50.968;5.816;2022-11-20T04:28:37;100343.38;;;3.28;95.25
68994;BME280;56054;50.968;5.816;2022-11-20T04:31:45;100356.69;;;3.24;95.42
68994;BME280;56054;50.968;5.816;2022-11-20T04:34:53;100353.41;;;3.35;95.15
68994;BME280;56054;50.968;5.816;2022-11-20T04:38:00;100355.00;;;3.14;95.29
68994;BME280;56054;50.968;5.816;2022-11-20T04:41:20;100348.91;;;3.33;95.99
68994;BME280;56054;50.968;5.816;2022-11-20T04:44:29;100348.38;;;3.27;95.69
68994;BME280;56054;50.968;5.816;2022-11-20T04:47:36;100345.44;;;3.32;94.65
68994;BME280;56054;50.968;5.816;2022-11-20T04:50:43;100338.25;;;3.49;94.95
68994;BME280;56054;50.968;5.816;2022-11-20T04:53:50;100352.13;;;3.40;94.89
68994;BME280;56054;50.968;5.816;2022-11-20T04:56:57;100347.88;;;3.41;94.45
68994;BME280;56054;50.968;5.816;2022-11-20T05:00:05;100349.44;;;3.59;94.64
68994;BME280;56054;50.968;5.816;2022-11-20T05:03:12;100347.47;;;3.36;94.37
68994;BME280;56054;50.968;5.816;2022-11-20T05:06:22;100347.63;;;3.48;94.47
68994;BME280;56054;50.968;5.816;2022-11-20T05:09:35;100346.88;;;3.59;94.61
68994;BME280;56054;50.968;5.816;2022-11-20T05:12:42;100340.19;;;3.61;95.21
68994;BME280;56054;50.968;5.816;2022-11-20T05:15:49;100352.00;;;3.59;95.14
68994;BME280;56054;50.968;5.816;2022-11-20T05:18:56;100337.50;;;3.50;95.17
68994;BME280;56054;50.968;5.816;2022-11-20T05:22:04;100339.53;;;3.43;95.45
68994;BME280;56054;50.968;5.816;2022-11-20T05:25:12;100330.28;;;3.56;94.72
68994;BME280;56054;50.968;5.816;2022-11-20T05:28:18;100323.31;;;3.24;96.69
68994;BME280;56054;50.968;5.816;2022-11-20T05:31:25;100313.59;;;3.30;97.48
68994;BME280;56054;50.968;5.816;2022-11-20T05:34:32;100315.53;;;3.43;98.31
68994;BME280;56054;50.968;5.816;2022-11-20T05:37:39;100310.25;;;3.31;99.16
68994;BME280;56054;50.968;5.816;2022-11-20T05:40:46;100308.97;;;3.36;100.00
68994;BME280;56054;50.968;5.816;2022-11-20T05:43:53;100314.75;;;3.34;100.00
68994;BME280;56054;50.968;5.816;2022-11-20T05:47:00;100311.81;;;3.29;100.00
68994;BME280;56054;50.968;5.816;2022-11-20T05:50:07;100326.69;;;3.43;100.00
68994;BME280;56054;50.968;5.816;2022-11-20T05:53:14;100321.28;;;3.30;100.00
68994;BME280;56054;50.968;5.816;2022-11-20T05:56:21;100321.16;;;3.29;100.00
68994;BME280;56054;50.968;5.816;2022-11-20T05:59:28;100329.50;;;3.26;100.00
68994;BME280;56054;50.968;5.816;2022-11-20T06:02:35;100329.25;;;3.33;100.00
68994;BME280;56054;50.968;5.816;2022-11-20T06:05:42;100328.25;;;3.52;100.00
68994;BME280;56054;50.968;5.816;2022-11-20T06:08:49;100335.25;;;3.13;100.00
68994;BME280;56054;50.968;5.816;2022-11-20T06:11:56;100337.44;;;3.19;100.00
68994;BME280;56054;50.968;5.816;2022-11-20T06:15:04;100335.09;;;3.02;100.00
68994;BME280;56054;50.968;5.816;2022-11-20T06:18:11;100338.97;;;3.17;100.00
68994;BME280;56054;50.968;5.816;2022-11-20T06:21:20;100338.94;;;3.07;100.00
68994;BME280;56054;50.968;5.816;2022-11-20T06:24:27;100343.19;;;3.06;100.00
68994;BME280;56054;50.968;5.816;2022-11-20T06:27:34;100343.75;;;3.22;100.00
68994;BME280;56054;50.968;5.816;2022-11-20T06:30:45;100341.09;;;3.41;100.00
68994;BME280;56054;50.968;5.816;2022-11-20T06:33:52;100348.88;;;3.22;100.00
68994;BME280;56054;50.968;5.816;2022-11-20T06:36:59;100350.91;;;3.06;100.00
68994;BME280;56054;50.968;5.816;2022-11-20T06:40:09;100344.41;;;3.20;100.00
68994;BME280;56054;50.968;5.816;2022-11-20T06:43:19;100345.19;;;3.29;100.00
68994;BME280;56054;50.968;5.816;2022-11-20T06:46:26;100340.56;;;3.25;100.00
68994;BME280;56054;50.968;5.816;2022-11-20T06:49:33;100348.75;;;3.31;100.00
68994;BME280;56054;50.968;5.816;2022-11-20T06:52:40;100350.34;;;3.50;100.00
68994;BME280;56054;50.968;5.816;2022-11-20T06:55:48;100348.41;;;3.37;100.00
68994;BME280;56054;50.968;5.816;2022-11-20T06:58:55;100343.63;;;3.31;100.00
68994;BME280;56054;50.968;5.816;2022-11-20T07:02:02;100340.22;;;3.51;100.00
68994;BME280;56054;50.968;5.816;2022-11-20T07:05:09;100338.53;;;3.52;100.00
68994;BME280;56054;50.968;5.816;2022-11-20T07:08:26;100344.44;;;3.61;100.00
68994;BME280;56054;50.968;5.816;2022-11-20T07:11:32;100340.06;;;3.70;100.00
68994;BME280;56054;50.968;5.816;2022-11-20T07:14:39;100347.53;;;3.47;100.00
68994;BME280;56054;50.968;5.816;2022-11-20T07:17:47;100342.50;;;3.69;100.00
68994;BME280;56054;50.968;5.816;2022-11-20T07:20:53;100342.50;;;3.69;100.00
68994;BME280;56054;50.968;5.816;2022-11-20T07:24:00;100335.72;;;3.59;100.00
68994;BME280;56054;50.968;5.816;2022-11-20T07:27:07;100337.38;;;3.69;100.00
68994;BME280;56054;50.968;5.816;2022-11-20T07:30:18;100329.28;;;3.64;100.00
68994;BME280;56054;50.968;5.816;2022-11-20T07:33:24;100336.75;;;3.61;100.00
68994;BME280;56054;50.968;5.816;2022-11-20T07:36:31;100325.44;;;3.59;100.00
68994;BME280;56054;50.968;5.816;2022-11-20T07:39:38;100329.53;;;3.47;100.00
68994;BME280;56054;50.968;5.816;2022-11-20T07:42:53;100338.91;;;3.56;100.00
68994;BME280;56054;50.968;5.816;2022-11-20T07:46:03;100346.09;;;3.50;100.00
68994;BME280;56054;50.968;5.816;2022-11-20T07:49:10;100346.84;;;3.39;100.00
68994;BME280;56054;50.968;5.816;2022-11-20T07:52:20;100339.53;;;3.33;100.00
68994;BME280;56054;50.968;5.816;2022-11-20T07:55:27;100336.94;;;3.33;100.00
68994;BME280;56054;50.968;5.816;2022-11-20T07:58:37;100345.84;;;3.37;100.00
68994;BME280;56054;50.968;5.816;2022-11-20T08:01:46;100343.66;;;3.52;100.00
68994;BME280;56054;50.968;5.816;2022-11-20T08:04:56;100333.38;;;3.62;100.00
68994;BME280;56054;50.968;5.816;2022-11-20T08:08:10;100339.31;;;3.71;100.00
68994;BME280;56054;50.968;5.816;2022-11-20T08:11:20;100338.13;;;3.57;100.00
68994;BME280;56054;50.968;5.816;2022-11-20T08:14:27;100334.16;;;3.61;100.00
68994;BME280;56054;50.968;5.816;2022-11-20T08:17:37;100328.13;;;3.81;100.00
68994;BME280;56054;50.968;5.816;2022-11-20T08:20:45;100328.22;;;3.82;100.00
68994;BME280;56054;50.968;5.816;2022-11-20T08:23:51;100320.00;;;3.86;100.00
68994;BME280;56054;50.968;5.816;2022-11-20T08:26:59;100331.44;;;3.80;100.00
68994;BME280;56054;50.968;5.816;2022-11-20T08:30:14;100331.31;;;3.68;100.00
68994;BME280;56054;50.968;5.816;2022-11-20T08:33:25;100335.56;;;3.78;100.00
68994;BME280;56054;50.968;5.816;2022-11-20T08:36:58;100330.31;;;3.76;100.00
68994;BME280;56054;50.968;5.816;2022-11-20T08:40:19;100321.78;;;3.88;100.00
68994;BME280;56054;50.968;5.816;2022-11-20T08:43:49;100311.44;;;3.76;100.00
68994;BME280;56054;50.968;5.816;2022-11-20T08:47:20;100318.47;;;3.89;100.00
68994;BME280;56054;50.968;5.816;2022-11-20T08:50:48;100317.31;;;3.75;100.00
68994;BME280;56054;50.968;5.816;2022-11-20T08:53:56;100312.41;;;3.78;100.00
68994;BME280;56054;50.968;5.816;2022-11-20T09:00:54;100307.94;;;3.65;100.00
68994;BME280;56054;50.968;5.816;2022-11-20T09:04:00;100310.25;;;3.82;100.00
68994;BME280;56054;50.968;5.816;2022-11-20T09:07:50;100312.06;;;3.83;100.00
68994;BME280;56054;50.968;5.816;2022-11-20T09:11:10;100310.13;;;3.91;100.00
68994;BME280;56054;50.968;5.816;2022-11-20T09:14:21;100297.78;;;3.87;100.00
68994;BME280;56054;50.968;5.816;2022-11-20T09:17:32;100304.47;;;3.95;100.00
68994;BME280;56054;50.968;5.816;2022-11-20T09:20:40;100308.97;;;3.98;100.00
68994;BME280;56054;50.968;5.816;2022-11-20T09:24:07;100317.03;;;4.13;100.00
68994;BME280;56054;50.968;5.816;2022-11-20T09:27:43;100302.44;;;4.23;100.00
68994;BME280;56054;50.968;5.816;2022-11-20T09:31:26;100299.69;;;4.10;100.00
68994;BME280;56054;50.968;5.816;2022-11-20T09:34:36;100288.13;;;4.05;100.00
68994;BME280;56054;50.968;5.816;2022-11-20T09:37:44;100272.16;;;4.09;100.00
68994;BME280;56054;50.968;5.816;2022-11-20T09:49:15;100265.75;;;4.36;100.00
68994;BME280;56054;50.968;5.816;2022-11-20T09:55:48;100262.00;;;4.43;100.00
68994;BME280;56054;50.968;5.816;2022-11-20T09:59:02;100260.03;;;4.50;100.00
68994;BME280;56054;50.968;5.816;2022-11-20T10:05:44;100270.94;;;4.58;100.00
68994;BME280;56054;50.968;5.816;2022-11-20T10:09:01;100269.19;;;4.47;100.00
68994;BME280;56054;50.968;5.816;2022-11-20T10:12:40;100244.22;;;4.56;100.00
68994;BME280;56054;50.968;5.816;2022-11-20T10:26:21;100218.69;;;4.81;100.00
68994;BME280;56054;50.968;5.816;2022-11-20T10:29:36;100213.44;;;4.80;100.00
68994;BME280;56054;50.968;5.816;2022-11-20T10:32:51;100210.31;;;4.84;100.00
68994;BME280;56054;50.968;5.816;2022-11-20T10:36:26;100200.59;;;4.91;100.00
68994;BME280;56054;50.968;5.816;2022-11-20T10:39:57;100191.47;;;4.95;100.00
68994;BME280;56054;50.968;5.816;2022-11-20T10:50:29;100182.66;;;5.15;100.00
68994;BME280;56054;50.968;5.816;2022-11-20T10:57:16;100181.34;;;5.20;100.00
68994;BME280;56054;50.968;5.816;2022-11-20T11:00:31;100168.56;;;5.33;100.00
68994;BME280;56054;50.968;5.816;2022-11-20T11:03:37;100166.44;;;5.28;100.00
68994;BME280;56054;50.968;5.816;2022-11-20T11:07:04;100154.25;;;5.37;100.00
68994;BME280;56054;50.968;5.816;2022-11-20T11:13:22;100138.47;;;5.44;100.00
68994;BME280;56054;50.968;5.816;2022-11-20T11:16:29;100138.56;;;5.46;100.00
68994;BME280;56054;50.968;5.816;2022-11-20T11:19:39;100137.56;;;5.55;100.00
68994;BME280;56054;50.968;5.816;2022-11-20T11:22:49;100124.94;;;5.58;100.00
68994;BME280;56054;50.968;5.816;2022-11-20T11:26:30;100123.31;;;5.61;100.00
68994;BME280;56054;50.968;5.816;2022-11-20T11:29:40;100112.34;;;5.63;100.00
68994;BME280;56054;50.968;5.816;2022-11-20T11:32:46;100113.91;;;5.73;100.00
68994;BME280;56054;50.968;5.816;2022-11-20T11:35:56;100102.69;;;5.84;100.00
68994;BME280;56054;50.968;5.816;2022-11-20T11:39:23;100100.44;;;5.89;100.00
68994;BME280;56054;50.968;5.816;2022-11-20T11:42:44;100092.84;;;5.90;100.00
68994;BME280;56054;50.968;5.816;2022-11-20T11:45:54;100091.50;;;5.95;100.00
68994;BME280;56054;50.968;5.816;2022-11-20T11:49:22;100083.19;;;5.99;100.00
68994;BME280;56054;50.968;5.816;2022-11-20T11:52:31;100078.94;;;6.00;100.00
68994;BME280;56054;50.968;5.816;2022-11-20T11:56:08;100077.09;;;6.11;100.00
68994;BME280;56054;50.968;5.816;2022-11-20T11:59:26;100072.28;;;6.15;100.00
68994;BME280;56054;50.968;5.816;2022-11-20T12:05:58;100060.91;;;6.25;100.00
68994;BME280;56054;50.968;5.816;2022-11-20T12:09:16;100056.41;;;6.34;100.00
68994;BME280;56054;50.968;5.816;2022-11-20T12:12:53;100039.75;;;6.42;100.00
68994;BME280;56054;50.968;5.816;2022-11-20T12:16:24;100043.16;;;6.55;100.00
68994;BME280;56054;50.968;5.816;2022-11-20T12:19:47;100032.81;;;6.55;100.00
68994;BME280;56054;50.968;5.816;2022-11-20T12:30:58;100007.38;;;6.86;100.00
68994;BME280;56054;50.968;5.816;2022-11-20T12:49:02;99966.84;;;7.25;100.00
68994;BME280;56054;50.968;5.816;2022-11-20T12:52:27;99968.22;;;7.33;100.00
68994;BME280;56054;50.968;5.816;2022-11-20T12:56:21;99956.97;;;7.46;100.00
68994;BME280;56054;50.968;5.816;2022-11-20T13:03:45;99948.66;;;7.65;100.00
68994;BME280;56054;50.968;5.816;2022-11-20T13:06:57;99946.53;;;7.72;100.00
68994;BME280;56054;50.968;5.816;2022-11-20T13:10:49;99934.91;;;7.79;100.00
68994;BME280;56054;50.968;5.816;2022-11-20T13:17:19;99930.19;;;7.87;100.00
68994;BME280;56054;50.968;5.816;2022-11-20T13:20:29;99925.00;;;7.87;100.00
68994;BME280;56054;50.968;5.816;2022-11-20T13:23:38;99919.13;;;7.89;100.00
68994;BME280;56054;50.968;5.816;2022-11-20T13:26:45;99913.25;;;7.92;100.00
68994;BME280;56054;50.968;5.816;2022-11-20T13:30:14;99912.47;;;7.93;100.00
68994;BME280;56054;50.968;5.816;2022-11-20T13:33:35;99904.72;;;7.93;100.00
68994;BME280;56054;50.968;5.816;2022-11-20T13:36:52;99892.66;;;7.93;100.00
68994;BME280;56054;50.968;5.816;2022-11-20T13:43:39;99886.34;;;8.03;98.17
68994;BME280;56054;50.968;5.816;2022-11-20T13:46:48;99883.16;;;8.07;96.17
68994;BME280;56054;50.968;5.816;2022-11-20T13:49:57;99875.63;;;8.12;93.42
68994;BME280;56054;50.968;5.816;2022-11-20T13:56:40;99870.53;;;7.99;95.38
68994;BME280;56054;50.968;5.816;2022-11-20T14:03:33;99859.84;;;7.92;95.03
68994;BME280;56054;50.968;5.816;2022-11-20T14:06:43;99861.06;;;7.84;93.62
68994;BME280;56054;50.968;5.816;2022-11-20T14:10:01;99872.56;;;7.75;94.42
68994;BME280;56054;50.968;5.816;2022-11-20T14:13:19;99858.00;;;7.62;95.02
68994;BME280;56054;50.968;5.816;2022-11-20T14:16:32;99846.91;;;7.49;97.01
68994;BME280;56054;50.968;5.816;2022-11-20T14:19:47;99843.06;;;7.43;98.71
68994;BME280;56054;50.968;5.816;2022-11-20T14:22:55;99834.94;;;7.37;100.00
68994;BME280;56054;50.968;5.816;2022-11-20T14:26:02;99835.16;;;7.26;100.00
68994;BME280;56054;50.968;5.816;2022-11-20T14:29:20;99814.28;;;7.23;100.00
68994;BME280;56054;50.968;5.816;2022-11-20T14:32:31;99812.94;;;7.15;100.00
68994;BME280;56054;50.968;5.816;2022-11-20T14:35:49;99812.84;;;7.14;100.00
68994;BME280;56054;50.968;5.816;2022-11-20T14:38:58;99798.16;;;6.99;100.00
68994;BME280;56054;50.968;5.816;2022-11-20T14:42:26;99795.09;;;7.05;100.00
68994;BME280;56054;50.968;5.816;2022-11-20T14:45:34;99787.94;;;7.01;100.00
68994;BME280;56054;50.968;5.816;2022-11-20T14:49:02;99785.97;;;6.97;100.00
68994;BME280;56054;50.968;5.816;2022-11-20T14:52:16;99767.59;;;6.92;100.00
68994;BME280;56054;50.968;5.816;2022-11-20T14:55:29;99750.34;;;6.91;100.00
68994;BME280;56054;50.968;5.816;2022-11-20T14:58:42;99756.63;;;6.81;100.00
68994;BME280;56054;50.968;5.816;2022-11-20T15:02:10;99755.81;;;6.82;100.00
68994;BME280;56054;50.968;5.816;2022-11-20T15:05:51;99748.75;;;6.80;100.00
68994;BME280;56054;50.968;5.816;2022-11-20T15:09:33;99738.41;;;6.93;100.00
68994;BME280;56054;50.968;5.816;2022-11-20T15:13:03;99727.97;;;6.92;100.00
68994;BME280;56054;50.968;5.816;2022-11-20T15:16:18;99730.63;;;6.78;100.00
68994;BME280;56054;50.968;5.816;2022-11-20T15:19:26;99712.31;;;6.75;100.00
68994;BME280;56054;50.968;5.816;2022-11-20T15:22:34;99715.63;;;6.73;100.00
68994;BME280;56054;50.968;5.816;2022-11-20T15:25:52;99707.97;;;6.74;100.00
68994;BME280;56054;50.968;5.816;2022-11-20T15:29:02;99696.31;;;6.66;100.00
68994;BME280;56054;50.968;5.816;2022-11-20T15:32:09;99691.22;;;6.68;100.00
68994;BME280;56054;50.968;5.816;2022-11-20T15:35:17;99699.75;;;6.67;100.00
68994;BME280;56054;50.968;5.816;2022-11-20T15:38:24;99686.69;;;6.63;100.00
68994;BME280;56054;50.968;5.816;2022-11-20T15:41:33;99679.91;;;6.65;100.00
68994;BME280;56054;50.968;5.816;2022-11-20T15:44:40;99674.47;;;6.61;100.00
68994;BME280;56054;50.968;5.816;2022-11-20T15:47:47;99664.88;;;6.58;100.00
68994;BME280;56054;50.968;5.816;2022-11-20T15:50:58;99654.72;;;6.61;100.00
68994;BME280;56054;50.968;5.816;2022-11-20T15:54:11;99643.50;;;6.61;100.00
68994;BME280;56054;50.968;5.816;2022-11-20T15:57:18;99648.66;;;6.61;100.00
68994;BME280;56054;50.968;5.816;2022-11-20T16:00:25;99635.75;;;6.61;100.00
68994;BME280;56054;50.968;5.816;2022-11-20T16:03:37;99626.94;;;6.57;100.00
68994;BME280;56054;50.968;5.816;2022-11-20T16:07:09;99627.22;;;6.62;100.00
68994;BME280;56054;50.968;5.816;2022-11-20T16:10:26;99614.19;;;6.60;100.00
68994;BME280;56054;50.968;5.816;2022-11-20T16:13:38;99611.81;;;6.63;100.00
68994;BME280;56054;50.968;5.816;2022-11-20T16:16:45;99619.75;;;6.67;100.00
68994;BME280;56054;50.968;5.816;2022-11-20T16:19:52;99608.53;;;6.66;100.00
68994;BME280;56054;50.968;5.816;2022-11-20T16:22:59;99599.16;;;6.68;100.00
68994;BME280;56054;50.968;5.816;2022-11-20T16:26:10;99594.94;;;6.69;100.00
68994;BME280;56054;50.968;5.816;2022-11-20T16:29:22;99602.66;;;6.69;100.00
68994;BME280;56054;50.968;5.816;2022-11-20T16:32:37;99598.28;;;6.68;100.00
68994;BME280;56054;50.968;5.816;2022-11-20T16:35:45;99601.84;;;6.70;100.00
68994;BME280;56054;50.968;5.816;2022-11-20T16:38:59;99608.34;;;6.78;100.00
68994;BME280;56054;50.968;5.816;2022-11-20T16:42:07;99609.38;;;6.95;100.00
68994;BME280;56054;50.968;5.816;2022-11-20T16:45:14;99599.59;;;7.04;100.00
68994;BME280;56054;50.968;5.816;2022-11-20T16:48:21;99609.28;;;6.93;100.00
68994;BME280;56054;50.968;5.816;2022-11-20T16:51:35;99604.31;;;6.96;100.00
68994;BME280;56054;50.968;5.816;2022-11-20T16:55:08;99600.75;;;7.09;100.00
68994;BME280;56054;50.968;5.816;2022-11-20T16:58:15;99595.84;;;7.14;100.00
68994;BME280;56054;50.968;5.816;2022-11-20T17:01:24;99586.88;;;7.22;100.00
68994;BME280;56054;50.968;5.816;2022-11-20T17:04:52;99598.16;;;7.24;100.00
68994;BME280;56054;50.968;5.816;2022-11-20T17:08:00;99588.75;;;7.24;100.00
68994;BME280;56054;50.968;5.816;2022-11-20T17:11:08;99592.66;;;7.33;100.00
68994;BME280;56054;50.968;5.816;2022-11-20T17:14:16;99595.31;;;7.34;100.00
68994;BME280;56054;50.968;5.816;2022-11-20T17:17:23;99605.13;;;7.40;100.00
68994;BME280;56054;50.968;5.816;2022-11-20T17:20:30;99601.72;;;7.41;100.00
68994;BME280;56054;50.968;5.816;2022-11-20T17:23:42;99605.44;;;7.46;100.00
68994;BME280;56054;50.968;5.816;2022-11-20T17:26:50;99605.81;;;7.52;100.00
68994;BME280;56054;50.968;5.816;2022-11-20T17:29:57;99607.84;;;7.58;100.00
68994;BME280;56054;50.968;5.816;2022-11-20T17:33:07;99611.31;;;7.58;100.00
68994;BME280;56054;50.968;5.816;2022-11-20T17:36:16;99608.13;;;7.62;100.00
68994;BME280;56054;50.968;5.816;2022-11-20T17:39:24;99614.09;;;7.61;100.00
68994;BME280;56054;50.968;5.816;2022-11-20T17:42:32;99601.50;;;7.67;100.00
68994;BME280;56054;50.968;5.816;2022-11-20T17:45:41;99615.25;;;7.66;100.00
68994;BME280;56054;50.968;5.816;2022-11-20T17:48:49;99607.19;;;7.77;100.00
68994;BME280;56054;50.968;5.816;2022-11-20T17:51:57;99608.34;;;7.82;100.00
68994;BME280;56054;50.968;5.816;2022-11-20T17:55:05;99608.34;;;7.82;100.00
68994;BME280;56054;50.968;5.816;2022-11-20T17:58:15;99603.34;;;7.85;100.00
68994;BME280;56054;50.968;5.816;2022-11-20T18:01:27;99601.31;;;7.79;100.00
68994;BME280;56054;50.968;5.816;2022-11-20T18:04:34;99603.53;;;7.88;100.00
68994;BME280;56054;50.968;5.816;2022-11-20T18:07:42;99606.91;;;7.87;100.00
68994;BME280;56054;50.968;5.816;2022-11-20T18:10:52;99598.97;;;7.84;100.00
68994;BME280;56054;50.968;5.816;2022-11-20T18:14:01;99609.41;;;7.85;100.00
68994;BME280;56054;50.968;5.816;2022-11-20T18:17:12;99605.75;;;7.82;100.00
68994;BME280;56054;50.968;5.816;2022-11-20T18:20:20;99596.84;;;7.77;100.00
68994;BME280;56054;50.968;5.816;2022-11-20T18:23:29;99584.66;;;7.74;100.00